sensor_id;sensor_type;location;lat;lon;timestamp;P1;durP1;ratioP1;P2;durP2;ratioP2
13085;SDS011;6609;49.882;8.664;2023-04-24T00:01:40;2.60;;;1.10;;
13085;SDS011;6609;49.882;8.664;2023-04-24T00:04:07;2.87;;;0.87;;
13085;SDS011;6609;49.882;8.664;2023-04-24T00:06:36;1.50;;;0.93;;
13085;SDS011;6609;49.882;8.664;2023-04-24T00:09:03;4.23;;;1.13;;
13085;SDS011;6609;49.882;8.664;2023-04-24T00:11:30;0.93;;;0.80;;
13085;SDS011;6609;49.882;8.664;2023-04-24T00:13:57;1.73;;;0.97;;
13085;SDS011;6609;49.882;8.664;2023-04-24T00:16:24;1.63;;;0.93;;
13085;SDS011;6609;49.882;8.664;2023-04-24T00:18:52;0.93;;;0.90;;
13085;SDS011;6609;49.882;8.664;2023-04-24T00:21:21;4.33;;;1.10;;
13085;SDS011;6609;49.882;8.664;2023-04-24T00:23:50;2.93;;;0.90;;
13085;SDS011;6609;49.882;8.664;2023-04-24T00:26:17;1.17;;;0.80;;
13085;SDS011;6609;49.882;8.664;2023-04-24T00:28:44;1.03;;;0.83;;
13085;SDS011;6609;49.882;8.664;2023-04-24T00:31:11;0.77;;;0.70;;
13085;SDS011;6609;49.882;8.664;2023-04-24T00:33:38;0.67;;;0.67;;
13085;SDS011;6609;49.882;8.664;2023-04-24T00:36:07;1.50;;;0.70;;
13085;SDS011;6609;49.882;8.664;2023-04-24T00:38:33;4.17;;;1.10;;
13085;SDS011;6609;49.882;8.664;2023-04-24T00:41:00;3.33;;;1.10;;
13085;SDS011;6609;49.882;8.664;2023-04-24T00:43:27;1.33;;;0.70;;
13085;SDS011;6609;49.882;8.664;2023-04-24T00:45:54;2.07;;;0.97;;
13085;SDS011;6609;49.882;8.664;2023-04-24T00:48:21;0.73;;;0.70;;
13085;SDS011;6609;49.882;8.664;2023-04-24T00:50:49;1.17;;;0.83;;
13085;SDS011;6609;49.882;8.664;2023-04-24T00:53:18;6.20;;;1.00;;
13085;SDS011;6609;49.882;8.664;2023-04-24T00:55:45;3.17;;;1.30;;
13085;SDS011;6609;49.882;8.664;2023-04-24T00:58:12;0.73;;;0.73;;
13085;SDS011;6609;49.882;8.664;2023-04-24T01:00:39;2.70;;;1.03;;
13085;SDS011;6609;49.882;8.664;2023-04-24T01:03:06;2.90;;;1.10;;
13085;SDS011;6609;49.882;8.664;2023-04-24T01:05:34;1.73;;;0.90;;
13085;SDS011;6609;49.882;8.664;2023-04-24T01:08:01;1.60;;;1.10;;
13085;SDS011;6609;49.882;8.664;2023-04-24T01:10:29;4.10;;;1.00;;
13085;SDS011;6609;49.882;8.664;2023-04-24T01:12:59;2.90;;;0.87;;
13085;SDS011;6609;49.882;8.664;2023-04-24T01:15:25;0.70;;;0.53;;
13085;SDS011;6609;49.882;8.664;2023-04-24T01:17:52;2.07;;;0.80;;
13085;SDS011;6609;49.882;8.664;2023-04-24T01:20:19;2.70;;;0.90;;
13085;SDS011;6609;49.882;8.664;2023-04-24T01:22:48;1.07;;;0.87;;
13085;SDS011;6609;49.882;8.664;2023-04-24T01:25:15;3.13;;;0.90;;
13085;SDS011;6609;49.882;8.664;2023-04-24T01:27:41;2.47;;;1.10;;
13085;SDS011;6609;49.882;8.664;2023-04-24T01:30:08;1.53;;;0.60;;
13085;SDS011;6609;49.882;8.664;2023-04-24T01:32:36;1.23;;;1.00;;
13085;SDS011;6609;49.882;8.664;2023-04-24T01:35:03;3.10;;;0.80;;
13085;SDS011;6609;49.882;8.664;2023-04-24T01:37:31;2.07;;;1.10;;
13085;SDS011;6609;49.882;8.664;2023-04-24T01:39:59;1.83;;;0.90;;
13085;SDS011;6609;49.882;8.664;2023-04-24T01:42:26;3.70;;;1.30;;
13085;SDS011;6609;49.882;8.664;2023-04-24T01:44:53;1.90;;;0.80;;
13085;SDS011;6609;49.882;8.664;2023-04-24T01:47:20;8.20;;;1.07;;
13085;SDS011;6609;49.882;8.664;2023-04-24T01:49:47;3.70;;;1.40;;
13085;SDS011;6609;49.882;8.664;2023-04-24T01:52:15;1.97;;;0.90;;
13085;SDS011;6609;49.882;8.664;2023-04-24T01:54:43;2.43;;;1.10;;
13085;SDS011;6609;49.882;8.664;2023-04-24T01:57:11;1.90;;;0.90;;
13085;SDS011;6609;49.882;8.664;2023-04-24T01:59:39;3.23;;;1.07;;
13085;SDS011;6609;49.882;8.664;2023-04-24T02:02:06;1.60;;;0.73;;
13085;SDS011;6609;49.882;8.664;2023-04-24T02:04:34;2.77;;;1.13;;
13085;SDS011;6609;49.882;8.664;2023-04-24T02:07:00;2.93;;;0.93;;
13085;SDS011;6609;49.882;8.664;2023-04-24T02:09:27;2.20;;;0.60;;
13085;SDS011;6609;49.882;8.664;2023-04-24T02:11:54;2.63;;;1.17;;
13085;SDS011;6609;49.882;8.664;2023-04-24T02:14:22;1.90;;;0.80;;
13085;SDS011;6609;49.882;8.664;2023-04-24T02:16:49;1.10;;;0.80;;
13085;SDS011;6609;49.882;8.664;2023-04-24T02:19:16;2.13;;;0.80;;
13085;SDS011;6609;49.882;8.664;2023-04-24T02:21:43;1.60;;;0.97;;
13085;SDS011;6609;49.882;8.664;2023-04-24T02:24:09;1.40;;;0.70;;
13085;SDS011;6609;49.882;8.664;2023-04-24T02:26:36;1.47;;;1.10;;
13085;SDS011;6609;49.882;8.664;2023-04-24T02:29:03;1.17;;;0.60;;
13085;SDS011;6609;49.882;8.664;2023-04-24T02:31:31;3.27;;;1.00;;
13085;SDS011;6609;49.882;8.664;2023-04-24T02:33:58;1.80;;;1.13;;
13085;SDS011;6609;49.882;8.664;2023-04-24T02:36:25;1.00;;;0.90;;
13085;SDS011;6609;49.882;8.664;2023-04-24T02:38:52;2.60;;;1.10;;
13085;SDS011;6609;49.882;8.664;2023-04-24T02:41:19;4.80;;;1.30;;
13085;SDS011;6609;49.882;8.664;2023-04-24T02:43:46;3.30;;;1.00;;
13085;SDS011;6609;49.882;8.664;2023-04-24T02:46:12;2.80;;;1.10;;
13085;SDS011;6609;49.882;8.664;2023-04-24T02:48:41;1.50;;;1.00;;
13085;SDS011;6609;49.882;8.664;2023-04-24T02:51:08;2.23;;;0.90;;
13085;SDS011;6609;49.882;8.664;2023-04-24T02:53:35;2.23;;;0.90;;
13085;SDS011;6609;49.882;8.664;2023-04-24T02:56:02;2.00;;;1.03;;
13085;SDS011;6609;49.882;8.664;2023-04-24T02:58:29;2.93;;;1.50;;
13085;SDS011;6609;49.882;8.664;2023-04-24T03:00:56;1.77;;;1.20;;
13085;SDS011;6609;49.882;8.664;2023-04-24T03:03:23;5.73;;;1.47;;
13085;SDS011;6609;49.882;8.664;2023-04-24T03:05:51;2.70;;;1.27;;
13085;SDS011;6609;49.882;8.664;2023-04-24T03:08:18;2.27;;;1.43;;
13085;SDS011;6609;49.882;8.664;2023-04-24T03:10:45;2.67;;;1.47;;
13085;SDS011;6609;49.882;8.664;2023-04-24T03:13:11;4.17;;;1.13;;
13085;SDS011;6609;49.882;8.664;2023-04-24T03:15:38;4.30;;;1.20;;
13085;SDS011;6609;49.882;8.664;2023-04-24T03:18:05;1.47;;;1.10;;
13085;SDS011;6609;49.882;8.664;2023-04-24T03:20:32;1.97;;;1.47;;
13085;SDS011;6609;49.882;8.664;2023-04-24T03:23:00;4.03;;;1.23;;
13085;SDS011;6609;49.882;8.664;2023-04-24T03:25:26;1.83;;;1.27;;
13085;SDS011;6609;49.882;8.664;2023-04-24T03:27:53;2.63;;;1.23;;
13085;SDS011;6609;49.882;8.664;2023-04-24T03:30:20;2.17;;;1.50;;
13085;SDS011;6609;49.882;8.664;2023-04-24T03:32:47;3.07;;;1.13;;
13085;SDS011;6609;49.882;8.664;2023-04-24T03:35:14;3.47;;;1.40;;
13085;SDS011;6609;49.882;8.664;2023-04-24T03:37:40;2.37;;;1.37;;
13085;SDS011;6609;49.882;8.664;2023-04-24T03:40:09;2.30;;;1.53;;
13085;SDS011;6609;49.882;8.664;2023-04-24T03:42:36;1.20;;;1.10;;
13085;SDS011;6609;49.882;8.664;2023-04-24T03:45:04;1.80;;;1.20;;
13085;SDS011;6609;49.882;8.664;2023-04-24T03:47:31;5.03;;;1.33;;
13085;SDS011;6609;49.882;8.664;2023-04-24T03:49:58;3.27;;;1.40;;
13085;SDS011;6609;49.882;8.664;2023-04-24T03:52:25;3.13;;;1.27;;
13085;SDS011;6609;49.882;8.664;2023-04-24T03:54:52;2.60;;;1.30;;
13085;SDS011;6609;49.882;8.664;2023-04-24T03:57:20;2.37;;;1.20;;
13085;SDS011;6609;49.882;8.664;2023-04-24T03:59:47;1.93;;;1.30;;
13085;SDS011;6609;49.882;8.664;2023-04-24T04:02:13;1.80;;;1.30;;
13085;SDS011;6609;49.882;8.664;2023-04-24T04:04:40;4.43;;;1.47;;
13085;SDS011;6609;49.882;8.664;2023-04-24T04:07:07;1.80;;;1.40;;
13085;SDS011;6609;49.882;8.664;2023-04-24T04:09:34;2.80;;;1.47;;
13085;SDS011;6609;49.882;8.664;2023-04-24T04:12:00;1.47;;;1.37;;
13085;SDS011;6609;49.882;8.664;2023-04-24T04:14:29;2.60;;;1.67;;
13085;SDS011;6609;49.882;8.664;2023-04-24T04:16:55;4.33;;;1.87;;
13085;SDS011;6609;49.882;8.664;2023-04-24T04:19:22;4.37;;;1.63;;
13085;SDS011;6609;49.882;8.664;2023-04-24T04:21:49;3.93;;;1.70;;
13085;SDS011;6609;49.882;8.664;2023-04-24T04:24:18;3.40;;;1.93;;
13085;SDS011;6609;49.882;8.664;2023-04-24T04:26:47;2.20;;;1.90;;
13085;SDS011;6609;49.882;8.664;2023-04-24T04:29:16;3.07;;;1.90;;
13085;SDS011;6609;49.882;8.664;2023-04-24T04:31:44;4.03;;;1.90;;
13085;SDS011;6609;49.882;8.664;2023-04-24T04:34:10;3.80;;;1.97;;
13085;SDS011;6609;49.882;8.664;2023-04-24T04:36:39;2.30;;;1.70;;
13085;SDS011;6609;49.882;8.664;2023-04-24T04:39:06;2.73;;;1.70;;
13085;SDS011;6609;49.882;8.664;2023-04-24T04:41:33;2.50;;;1.57;;
13085;SDS011;6609;49.882;8.664;2023-04-24T04:44:00;3.17;;;1.60;;
13085;SDS011;6609;49.882;8.664;2023-04-24T04:46:29;3.07;;;1.80;;
13085;SDS011;6609;49.882;8.664;2023-04-24T04:48:58;4.27;;;2.07;;
13085;SDS011;6609;49.882;8.664;2023-04-24T04:51:26;2.63;;;2.00;;
13085;SDS011;6609;49.882;8.664;2023-04-24T04:53:53;1.90;;;1.60;;
13085;SDS011;6609;49.882;8.664;2023-04-24T04:56:20;2.40;;;2.20;;
13085;SDS011;6609;49.882;8.664;2023-04-24T04:58:47;3.43;;;2.30;;
13085;SDS011;6609;49.882;8.664;2023-04-24T05:01:14;2.53;;;2.33;;
13085;SDS011;6609;49.882;8.664;2023-04-24T05:03:42;2.33;;;2.03;;
13085;SDS011;6609;49.882;8.664;2023-04-24T05:06:10;3.70;;;2.10;;
13085;SDS011;6609;49.882;8.664;2023-04-24T05:08:37;3.50;;;2.27;;
13085;SDS011;6609;49.882;8.664;2023-04-24T05:11:04;2.83;;;2.03;;
13085;SDS011;6609;49.882;8.664;2023-04-24T05:13:31;4.90;;;2.70;;
13085;SDS011;6609;49.882;8.664;2023-04-24T05:15:58;2.93;;;2.40;;
13085;SDS011;6609;49.882;8.664;2023-04-24T05:18:24;2.20;;;2.00;;
13085;SDS011;6609;49.882;8.664;2023-04-24T05:20:51;3.53;;;2.40;;
13085;SDS011;6609;49.882;8.664;2023-04-24T05:23:19;2.93;;;2.13;;
13085;SDS011;6609;49.882;8.664;2023-04-24T05:25:46;3.50;;;2.50;;
13085;SDS011;6609;49.882;8.664;2023-04-24T05:28:13;4.93;;;2.60;;
13085;SDS011;6609;49.882;8.664;2023-04-24T05:30:40;3.83;;;2.37;;
13085;SDS011;6609;49.882;8.664;2023-04-24T05:33:07;5.80;;;2.47;;
13085;SDS011;6609;49.882;8.664;2023-04-24T05:35:34;3.17;;;2.60;;
13085;SDS011;6609;49.882;8.664;2023-04-24T05:38:01;3.53;;;2.73;;
13085;SDS011;6609;49.882;8.664;2023-04-24T05:40:30;4.20;;;2.27;;
13085;SDS011;6609;49.882;8.664;2023-04-24T05:42:57;3.20;;;2.30;;
13085;SDS011;6609;49.882;8.664;2023-04-24T05:45:23;2.73;;;2.30;;
13085;SDS011;6609;49.882;8.664;2023-04-24T05:47:50;2.60;;;2.37;;
13085;SDS011;6609;49.882;8.664;2023-04-24T05:50:17;3.17;;;2.43;;
13085;SDS011;6609;49.882;8.664;2023-04-24T05:52:44;5.00;;;2.77;;
13085;SDS011;6609;49.882;8.664;2023-04-24T05:55:11;2.60;;;2.40;;
13085;SDS011;6609;49.882;8.664;2023-04-24T05:57:39;4.13;;;3.00;;
13085;SDS011;6609;49.882;8.664;2023-04-24T06:00:06;4.77;;;2.83;;
13085;SDS011;6609;49.882;8.664;2023-04-24T06:02:34;3.33;;;2.40;;
13085;SDS011;6609;49.882;8.664;2023-04-24T06:05:01;3.90;;;2.63;;
13085;SDS011;6609;49.882;8.664;2023-04-24T06:07:29;3.23;;;2.77;;
13085;SDS011;6609;49.882;8.664;2023-04-24T06:09:56;3.90;;;2.53;;
13085;SDS011;6609;49.882;8.664;2023-04-24T06:12:23;3.30;;;2.93;;
13085;SDS011;6609;49.882;8.664;2023-04-24T06:14:52;5.27;;;3.17;;
13085;SDS011;6609;49.882;8.664;2023-04-24T06:17:19;3.40;;;2.17;;
13085;SDS011;6609;49.882;8.664;2023-04-24T06:19:46;2.70;;;2.30;;
13085;SDS011;6609;49.882;8.664;2023-04-24T06:22:13;3.97;;;2.77;;
13085;SDS011;6609;49.882;8.664;2023-04-24T06:24:40;3.27;;;2.57;;
13085;SDS011;6609;49.882;8.664;2023-04-24T06:27:07;3.17;;;2.60;;
13085;SDS011;6609;49.882;8.664;2023-04-24T06:29:35;4.53;;;2.83;;
13085;SDS011;6609;49.882;8.664;2023-04-24T06:32:03;2.90;;;2.60;;
13085;SDS011;6609;49.882;8.664;2023-04-24T06:34:30;2.67;;;2.47;;
13085;SDS011;6609;49.882;8.664;2023-04-24T06:36:57;2.67;;;2.47;;
13085;SDS011;6609;49.882;8.664;2023-04-24T06:39:24;4.00;;;3.23;;
13085;SDS011;6609;49.882;8.664;2023-04-24T06:41:51;6.27;;;2.80;;
13085;SDS011;6609;49.882;8.664;2023-04-24T06:44:18;3.90;;;2.73;;
13085;SDS011;6609;49.882;8.664;2023-04-24T06:46:45;6.60;;;3.00;;
13085;SDS011;6609;49.882;8.664;2023-04-24T06:49:13;3.73;;;2.70;;
13085;SDS011;6609;49.882;8.664;2023-04-24T06:51:41;4.13;;;2.90;;
13085;SDS011;6609;49.882;8.664;2023-04-24T06:54:08;3.60;;;2.80;;
13085;SDS011;6609;49.882;8.664;2023-04-24T06:56:34;5.80;;;3.40;;
13085;SDS011;6609;49.882;8.664;2023-04-24T06:59:01;5.67;;;3.07;;
13085;SDS011;6609;49.882;8.664;2023-04-24T07:01:28;4.43;;;3.00;;
13085;SDS011;6609;49.882;8.664;2023-04-24T07:03:55;4.60;;;3.23;;
13085;SDS011;6609;49.882;8.664;2023-04-24T07:06:23;4.07;;;3.33;;
13085;SDS011;6609;49.882;8.664;2023-04-24T07:08:50;4.53;;;3.30;;
13085;SDS011;6609;49.882;8.664;2023-04-24T07:11:17;5.53;;;4.03;;
13085;SDS011;6609;49.882;8.664;2023-04-24T07:13:45;4.67;;;3.83;;
13085;SDS011;6609;49.882;8.664;2023-04-24T07:16:12;6.53;;;3.90;;
13085;SDS011;6609;49.882;8.664;2023-04-24T07:18:38;3.73;;;3.30;;
13085;SDS011;6609;49.882;8.664;2023-04-24T07:21:05;6.43;;;3.73;;
13085;SDS011;6609;49.882;8.664;2023-04-24T07:23:34;5.13;;;3.57;;
13085;SDS011;6609;49.882;8.664;2023-04-24T07:26:01;4.00;;;3.60;;
13085;SDS011;6609;49.882;8.664;2023-04-24T07:28:28;5.50;;;3.10;;
13085;SDS011;6609;49.882;8.664;2023-04-24T07:30:56;6.20;;;3.60;;
13085;SDS011;6609;49.882;8.664;2023-04-24T07:33:24;4.83;;;3.30;;
13085;SDS011;6609;49.882;8.664;2023-04-24T07:35:51;4.63;;;3.73;;
13085;SDS011;6609;49.882;8.664;2023-04-24T07:38:18;6.57;;;4.40;;
13085;SDS011;6609;49.882;8.664;2023-04-24T07:40:48;4.97;;;3.50;;
13085;SDS011;6609;49.882;8.664;2023-04-24T07:43:15;5.77;;;3.97;;
13085;SDS011;6609;49.882;8.664;2023-04-24T07:45:41;7.17;;;3.80;;
13085;SDS011;6609;49.882;8.664;2023-04-24T07:48:08;7.80;;;4.23;;
13085;SDS011;6609;49.882;8.664;2023-04-24T07:50:35;5.70;;;3.80;;
13085;SDS011;6609;49.882;8.664;2023-04-24T07:53:02;7.10;;;3.60;;
13085;SDS011;6609;49.882;8.664;2023-04-24T07:55:30;4.33;;;3.50;;
13085;SDS011;6609;49.882;8.664;2023-04-24T07:57:58;4.70;;;3.30;;
13085;SDS011;6609;49.882;8.664;2023-04-24T08:00:25;3.80;;;3.40;;
13085;SDS011;6609;49.882;8.664;2023-04-24T08:02:52;5.80;;;3.37;;
13085;SDS011;6609;49.882;8.664;2023-04-24T08:05:18;4.93;;;3.37;;
13085;SDS011;6609;49.882;8.664;2023-04-24T08:07:45;3.93;;;3.30;;
13085;SDS011;6609;49.882;8.664;2023-04-24T08:10:13;3.73;;;3.00;;
13085;SDS011;6609;49.882;8.664;2023-04-24T08:12:41;3.70;;;2.37;;
13085;SDS011;6609;49.882;8.664;2023-04-24T08:15:10;2.57;;;2.00;;
13085;SDS011;6609;49.882;8.664;2023-04-24T08:17:37;2.30;;;1.87;;
13085;SDS011;6609;49.882;8.664;2023-04-24T08:20:04;1.50;;;1.40;;
13085;SDS011;6609;49.882;8.664;2023-04-24T08:22:35;1.70;;;1.60;;
13085;SDS011;6609;49.882;8.664;2023-04-24T08:25:02;2.13;;;1.70;;
13085;SDS011;6609;49.882;8.664;2023-04-24T08:27:29;2.07;;;1.47;;
13085;SDS011;6609;49.882;8.664;2023-04-24T08:29:56;4.83;;;1.63;;
13085;SDS011;6609;49.882;8.664;2023-04-24T08:32:25;1.90;;;1.73;;
13085;SDS011;6609;49.882;8.664;2023-04-24T08:34:53;3.10;;;2.00;;
13085;SDS011;6609;49.882;8.664;2023-04-24T08:37:21;2.07;;;1.70;;
13085;SDS011;6609;49.882;8.664;2023-04-24T08:39:48;7.90;;;2.30;;
13085;SDS011;6609;49.882;8.664;2023-04-24T08:42:16;1.80;;;1.70;;
13085;SDS011;6609;49.882;8.664;2023-04-24T08:44:43;2.10;;;1.87;;
13085;SDS011;6609;49.882;8.664;2023-04-24T08:47:10;1.97;;;1.80;;
13085;SDS011;6609;49.882;8.664;2023-04-24T08:49:39;2.10;;;1.90;;
13085;SDS011;6609;49.882;8.664;2023-04-24T08:52:06;2.00;;;1.80;;
13085;SDS011;6609;49.882;8.664;2023-04-24T08:54:34;2.23;;;1.90;;
13085;SDS011;6609;49.882;8.664;2023-04-24T08:57:03;2.30;;;2.10;;
13085;SDS011;6609;49.882;8.664;2023-04-24T08:59:30;2.17;;;1.97;;
13085;SDS011;6609;49.882;8.664;2023-04-24T09:01:57;2.73;;;2.10;;
13085;SDS011;6609;49.882;8.664;2023-04-24T09:04:24;3.93;;;1.90;;
13085;SDS011;6609;49.882;8.664;2023-04-24T09:06:53;2.47;;;2.27;;
13085;SDS011;6609;49.882;8.664;2023-04-24T09:09:23;4.13;;;1.90;;
13085;SDS011;6609;49.882;8.664;2023-04-24T09:11:50;2.97;;;2.00;;
13085;SDS011;6609;49.882;8.664;2023-04-24T09:14:20;3.07;;;2.40;;
13085;SDS011;6609;49.882;8.664;2023-04-24T09:16:48;4.23;;;2.77;;
13085;SDS011;6609;49.882;8.664;2023-04-24T09:19:15;2.20;;;1.63;;
13085;SDS011;6609;49.882;8.664;2023-04-24T09:21:45;3.40;;;2.40;;
13085;SDS011;6609;49.882;8.664;2023-04-24T09:24:16;4.00;;;2.27;;
13085;SDS011;6609;49.882;8.664;2023-04-24T09:26:45;3.43;;;1.97;;
13085;SDS011;6609;49.882;8.664;2023-04-24T09:29:13;3.00;;;2.30;;
13085;SDS011;6609;49.882;8.664;2023-04-24T09:31:41;2.50;;;1.73;;
13085;SDS011;6609;49.882;8.664;2023-04-24T09:34:08;2.87;;;1.90;;
13085;SDS011;6609;49.882;8.664;2023-04-24T09:36:36;2.20;;;1.70;;
13085;SDS011;6609;49.882;8.664;2023-04-24T09:39:04;2.60;;;1.97;;
13085;SDS011;6609;49.882;8.664;2023-04-24T09:41:35;4.07;;;2.40;;
13085;SDS011;6609;49.882;8.664;2023-04-24T09:44:11;2.47;;;2.20;;
13085;SDS011;6609;49.882;8.664;2023-04-24T09:46:39;1.87;;;1.73;;
13085;SDS011;6609;49.882;8.664;2023-04-24T09:49:09;1.90;;;1.70;;
13085;SDS011;6609;49.882;8.664;2023-04-24T09:51:40;2.10;;;1.67;;
13085;SDS011;6609;49.882;8.664;2023-04-24T09:54:13;3.33;;;2.00;;
13085;SDS011;6609;49.882;8.664;2023-04-24T09:56:43;3.30;;;1.70;;
13085;SDS011;6609;49.882;8.664;2023-04-24T09:59:12;3.17;;;2.00;;
13085;SDS011;6609;49.882;8.664;2023-04-24T10:01:39;3.83;;;2.37;;
13085;SDS011;6609;49.882;8.664;2023-04-24T10:04:14;3.13;;;1.90;;
13085;SDS011;6609;49.882;8.664;2023-04-24T10:06:43;2.07;;;1.70;;
13085;SDS011;6609;49.882;8.664;2023-04-24T10:09:10;2.17;;;1.97;;
13085;SDS011;6609;49.882;8.664;2023-04-24T10:11:39;2.40;;;1.87;;
13085;SDS011;6609;49.882;8.664;2023-04-24T10:14:10;3.10;;;2.03;;
13085;SDS011;6609;49.882;8.664;2023-04-24T10:16:38;2.60;;;1.70;;
13085;SDS011;6609;49.882;8.664;2023-04-24T10:19:06;2.10;;;1.80;;
13085;SDS011;6609;49.882;8.664;2023-04-24T10:21:33;2.77;;;1.63;;
13085;SDS011;6609;49.882;8.664;2023-04-24T10:24:02;1.67;;;1.57;;
13085;SDS011;6609;49.882;8.664;2023-04-24T10:26:30;2.63;;;2.00;;
13085;SDS011;6609;49.882;8.664;2023-04-24T10:28:57;1.90;;;1.70;;
13085;SDS011;6609;49.882;8.664;2023-04-24T10:31:26;1.97;;;1.80;;
13085;SDS011;6609;49.882;8.664;2023-04-24T10:33:56;2.97;;;2.00;;
13085;SDS011;6609;49.882;8.664;2023-04-24T10:36:25;3.20;;;1.83;;
13085;SDS011;6609;49.882;8.664;2023-04-24T10:38:54;2.53;;;1.90;;
13085;SDS011;6609;49.882;8.664;2023-04-24T10:41:23;2.40;;;2.20;;
13085;SDS011;6609;49.882;8.664;2023-04-24T10:44:03;3.23;;;2.70;;
13085;SDS011;6609;49.882;8.664;2023-04-24T10:46:33;2.30;;;1.93;;
13085;SDS011;6609;49.882;8.664;2023-04-24T10:49:03;2.53;;;1.93;;
13085;SDS011;6609;49.882;8.664;2023-04-24T10:51:45;1.97;;;1.70;;
13085;SDS011;6609;49.882;8.664;2023-04-24T10:54:23;2.27;;;1.70;;
13085;SDS011;6609;49.882;8.664;2023-04-24T11:02:40;3.30;;;2.00;;
13085;SDS011;6609;49.882;8.664;2023-04-24T11:05:14;3.90;;;2.50;;
13085;SDS011;6609;49.882;8.664;2023-04-24T11:10:39;4.13;;;2.27;;
13085;SDS011;6609;49.882;8.664;2023-04-24T11:13:09;2.27;;;2.07;;
13085;SDS011;6609;49.882;8.664;2023-04-24T11:15:36;3.07;;;1.90;;
13085;SDS011;6609;49.882;8.664;2023-04-24T11:18:05;2.10;;;1.70;;
13085;SDS011;6609;49.882;8.664;2023-04-24T11:20:32;2.40;;;1.83;;
13085;SDS011;6609;49.882;8.664;2023-04-24T11:23:03;2.40;;;2.20;;
13085;SDS011;6609;49.882;8.664;2023-04-24T11:25:31;3.63;;;2.30;;
13085;SDS011;6609;49.882;8.664;2023-04-24T11:28:07;3.87;;;2.80;;
13085;SDS011;6609;49.882;8.664;2023-04-24T11:30:42;3.40;;;2.60;;
13085;SDS011;6609;49.882;8.664;2023-04-24T11:33:10;3.50;;;3.10;;
13085;SDS011;6609;49.882;8.664;2023-04-24T11:35:39;4.50;;;3.63;;
13085;SDS011;6609;49.882;8.664;2023-04-24T11:38:06;4.33;;;3.10;;
13085;SDS011;6609;49.882;8.664;2023-04-24T11:40:33;4.07;;;3.47;;
13085;SDS011;6609;49.882;8.664;2023-04-24T11:43:00;3.70;;;3.40;;
13085;SDS011;6609;49.882;8.664;2023-04-24T11:45:29;4.50;;;3.17;;
13085;SDS011;6609;49.882;8.664;2023-04-24T11:47:56;4.10;;;3.37;;
13085;SDS011;6609;49.882;8.664;2023-04-24T11:50:25;3.27;;;3.00;;
13085;SDS011;6609;49.882;8.664;2023-04-24T11:52:54;6.33;;;3.17;;
13085;SDS011;6609;49.882;8.664;2023-04-24T11:55:25;4.20;;;2.50;;
13085;SDS011;6609;49.882;8.664;2023-04-24T11:57:53;8.67;;;3.27;;
13085;SDS011;6609;49.882;8.664;2023-04-24T12:00:22;3.30;;;3.00;;
13085;SDS011;6609;49.882;8.664;2023-04-24T12:02:50;3.60;;;3.13;;
13085;SDS011;6609;49.882;8.664;2023-04-24T12:05:20;3.07;;;2.77;;
13085;SDS011;6609;49.882;8.664;2023-04-24T12:07:49;3.47;;;2.77;;
13085;SDS011;6609;49.882;8.664;2023-04-24T12:10:19;2.67;;;2.47;;
13085;SDS011;6609;49.882;8.664;2023-04-24T12:12:46;2.90;;;2.60;;
13085;SDS011;6609;49.882;8.664;2023-04-24T12:15:15;2.70;;;2.20;;
13085;SDS011;6609;49.882;8.664;2023-04-24T12:17:43;3.10;;;2.30;;
13085;SDS011;6609;49.882;8.664;2023-04-24T12:20:11;2.57;;;2.03;;
13085;SDS011;6609;49.882;8.664;2023-04-24T12:22:45;2.13;;;1.93;;
13085;SDS011;6609;49.882;8.664;2023-04-24T12:25:14;3.70;;;2.40;;
13085;SDS011;6609;49.882;8.664;2023-04-24T12:27:42;2.90;;;2.13;;
13085;SDS011;6609;49.882;8.664;2023-04-24T12:30:10;2.40;;;1.70;;
13085;SDS011;6609;49.882;8.664;2023-04-24T12:32:42;2.43;;;2.00;;
13085;SDS011;6609;49.882;8.664;2023-04-24T12:35:10;3.77;;;2.20;;
13085;SDS011;6609;49.882;8.664;2023-04-24T12:37:37;2.20;;;2.00;;
13085;SDS011;6609;49.882;8.664;2023-04-24T12:40:05;4.60;;;2.10;;
13085;SDS011;6609;49.882;8.664;2023-04-24T12:42:35;2.30;;;2.10;;
13085;SDS011;6609;49.882;8.664;2023-04-24T12:45:07;3.27;;;2.83;;
13085;SDS011;6609;49.882;8.664;2023-04-24T12:47:36;4.33;;;2.53;;
13085;SDS011;6609;49.882;8.664;2023-04-24T12:50:04;3.93;;;2.90;;
13085;SDS011;6609;49.882;8.664;2023-04-24T12:52:31;4.00;;;2.87;;
13085;SDS011;6609;49.882;8.664;2023-04-24T12:54:59;5.00;;;3.17;;
13085;SDS011;6609;49.882;8.664;2023-04-24T12:57:27;3.80;;;2.50;;
13085;SDS011;6609;49.882;8.664;2023-04-24T12:59:57;3.77;;;2.67;;
13085;SDS011;6609;49.882;8.664;2023-04-24T13:02:25;3.80;;;2.73;;
13085;SDS011;6609;49.882;8.664;2023-04-24T13:04:54;4.03;;;2.50;;
13085;SDS011;6609;49.882;8.664;2023-04-24T13:07:21;3.80;;;2.77;;
13085;SDS011;6609;49.882;8.664;2023-04-24T13:09:48;4.87;;;2.80;;
13085;SDS011;6609;49.882;8.664;2023-04-24T13:12:16;4.73;;;2.80;;
13085;SDS011;6609;49.882;8.664;2023-04-24T13:14:43;3.90;;;2.50;;
13085;SDS011;6609;49.882;8.664;2023-04-24T13:17:12;4.80;;;2.70;;
13085;SDS011;6609;49.882;8.664;2023-04-24T13:19:39;4.40;;;2.50;;
13085;SDS011;6609;49.882;8.664;2023-04-24T13:22:08;3.00;;;2.70;;
13085;SDS011;6609;49.882;8.664;2023-04-24T13:24:36;4.40;;;2.80;;
13085;SDS011;6609;49.882;8.664;2023-04-24T13:27:05;4.40;;;2.70;;
13085;SDS011;6609;49.882;8.664;2023-04-24T13:29:32;4.13;;;2.40;;
13085;SDS011;6609;49.882;8.664;2023-04-24T13:31:59;4.57;;;2.40;;
13085;SDS011;6609;49.882;8.664;2023-04-24T13:34:28;4.73;;;2.50;;
13085;SDS011;6609;49.882;8.664;2023-04-24T13:36:55;4.27;;;2.77;;
13085;SDS011;6609;49.882;8.664;2023-04-24T13:39:23;2.37;;;2.10;;
13085;SDS011;6609;49.882;8.664;2023-04-24T13:41:50;2.50;;;2.30;;
13085;SDS011;6609;49.882;8.664;2023-04-24T13:44:18;4.30;;;2.50;;
13085;SDS011;6609;49.882;8.664;2023-04-24T13:46:49;2.93;;;2.37;;
13085;SDS011;6609;49.882;8.664;2023-04-24T13:49:18;2.57;;;2.37;;
13085;SDS011;6609;49.882;8.664;2023-04-24T13:51:47;6.87;;;2.77;;
13085;SDS011;6609;49.882;8.664;2023-04-24T13:54:14;3.90;;;2.50;;
13085;SDS011;6609;49.882;8.664;2023-04-24T13:56:42;2.93;;;2.50;;
13085;SDS011;6609;49.882;8.664;2023-04-24T13:59:09;3.40;;;2.97;;
13085;SDS011;6609;49.882;8.664;2023-04-24T14:01:36;2.40;;;2.17;;
13085;SDS011;6609;49.882;8.664;2023-04-24T14:04:03;3.33;;;2.47;;
13085;SDS011;6609;49.882;8.664;2023-04-24T14:06:30;4.83;;;2.97;;
13085;SDS011;6609;49.882;8.664;2023-04-24T14:08:58;4.27;;;2.47;;
13085;SDS011;6609;49.882;8.664;2023-04-24T14:11:25;2.90;;;2.60;;
13085;SDS011;6609;49.882;8.664;2023-04-24T14:13:52;7.53;;;2.93;;
13085;SDS011;6609;49.882;8.664;2023-04-24T14:16:20;4.40;;;2.77;;
13085;SDS011;6609;49.882;8.664;2023-04-24T14:18:47;4.77;;;2.53;;
13085;SDS011;6609;49.882;8.664;2023-04-24T14:21:16;4.10;;;2.33;;
13085;SDS011;6609;49.882;8.664;2023-04-24T14:23:43;5.57;;;3.07;;
13085;SDS011;6609;49.882;8.664;2023-04-24T14:26:11;3.37;;;2.50;;
13085;SDS011;6609;49.882;8.664;2023-04-24T14:28:38;4.80;;;2.63;;
13085;SDS011;6609;49.882;8.664;2023-04-24T14:31:05;3.50;;;2.20;;
13085;SDS011;6609;49.882;8.664;2023-04-24T14:33:33;3.70;;;2.97;;
13085;SDS011;6609;49.882;8.664;2023-04-24T14:36:00;6.37;;;2.67;;
13085;SDS011;6609;49.882;8.664;2023-04-24T14:38:29;4.07;;;2.50;;
13085;SDS011;6609;49.882;8.664;2023-04-24T14:40:56;3.13;;;2.30;;
13085;SDS011;6609;49.882;8.664;2023-04-24T14:43:24;3.67;;;2.83;;
13085;SDS011;6609;49.882;8.664;2023-04-24T14:45:51;4.47;;;2.63;;
13085;SDS011;6609;49.882;8.664;2023-04-24T14:48:17;3.97;;;2.60;;
13085;SDS011;6609;49.882;8.664;2023-04-24T14:50:44;4.13;;;2.67;;
13085;SDS011;6609;49.882;8.664;2023-04-24T14:53:11;3.80;;;2.60;;
13085;SDS011;6609;49.882;8.664;2023-04-24T14:55:38;3.67;;;2.60;;
13085;SDS011;6609;49.882;8.664;2023-04-24T14:58:05;3.73;;;2.40;;
13085;SDS011;6609;49.882;8.664;2023-04-24T15:00:33;6.07;;;3.03;;
13085;SDS011;6609;49.882;8.664;2023-04-24T15:03:00;7.53;;;3.20;;
13085;SDS011;6609;49.882;8.664;2023-04-24T15:05:27;3.53;;;2.57;;
13085;SDS011;6609;49.882;8.664;2023-04-24T15:07:55;4.87;;;2.70;;
13085;SDS011;6609;49.882;8.664;2023-04-24T15:10:22;4.43;;;2.93;;
13085;SDS011;6609;49.882;8.664;2023-04-24T15:12:50;4.20;;;2.30;;